createdAt,value
2018-01-07T00:00:53.002Z,91.14
2018-01-07T00:03:25.722Z,92.25
2018-01-07T00:06:02.778Z,89.31
2018-01-07T00:08:31.834Z,91.74
2018-01-07T00:11:11.942Z,89.04
2018-01-07T00:13:40.984Z,90.92
2018-01-07T00:16:10.045Z,90.74
2018-01-07T00:18:39.095Z,89.88
2018-01-07T00:21:11.525Z,89.91
2018-01-07T00:23:40.570Z,90.31
2018-01-07T00:26:09.615Z,91.49
2018-01-07T00:28:38.646Z,91.02
2018-01-07T00:31:15.178Z,90.29
2018-01-07T00:33:44.217Z,91.77
2018-01-07T00:36:13.265Z,92.04
2018-01-07T00:38:42.325Z,91.11
2018-01-07T00:41:11.405Z,89.86
2018-01-07T00:43:40.433Z,89.97
2018-01-07T00:48:45.655Z,90.60
2018-01-07T00:51:16.673Z,90.80
2018-01-07T00:53:45.722Z,90.79
2018-01-07T00:58:55.825Z,91.33
2018-01-07T01:01:25.858Z,92.64
2018-01-07T01:03:56.914Z,93.85
2018-01-07T01:06:26.861Z,92.58
2018-01-07T01:08:58.998Z,91.35
2018-01-07T01:11:28.056Z,92.55
2018-01-07T01:14:01.909Z,93.17
2018-01-07T01:16:30.954Z,92.95
2018-01-07T01:19:08.800Z,91.19
2018-01-07T01:21:37.842Z,92.20
2018-01-07T01:24:06.889Z,91.45
2018-01-07T01:26:35.954Z,92.74
2018-01-07T01:29:04.998Z,92.31
2018-01-07T01:31:34.050Z,91.08
2018-01-07T01:34:03.186Z,92.43
2018-01-07T01:36:32.211Z,93.08
2018-01-07T01:39:07.223Z,94.23
2018-01-07T01:41:36.242Z,93.82
2018-01-07T01:44:05.277Z,91.94
2018-01-07T01:46:34.374Z,94.06
2018-01-07T01:49:21.333Z,94.26
2018-01-07T01:52:05.568Z,94.59
2018-01-07T01:54:34.706Z,93.20
2018-01-07T01:57:03.767Z,94.25
2018-01-07T01:59:32.814Z,94.75
2018-01-07T02:02:01.855Z,95.02
2018-01-07T02:04:30.899Z,95.02
2018-01-07T02:07:14.930Z,95.53
2018-01-07T02:09:43.980Z,94.83
2018-01-07T02:12:13.050Z,94.95
2018-01-07T02:14:42.106Z,93.37
2018-01-07T02:19:49.299Z,94.36
2018-01-07T02:24:59.516Z,94.75
2018-01-07T02:27:28.635Z,94.38
2018-01-07T02:29:57.676Z,94.15
2018-01-07T02:32:32.494Z,93.86
2018-01-07T02:35:01.533Z,94.32
2018-01-07T02:37:31.530Z,94.12
2018-01-07T02:40:00.592Z,94.42
2018-01-07T02:42:29.675Z,94.42
2018-01-07T02:44:58.717Z,94.98
2018-01-07T02:47:28.737Z,92.99
2018-01-07T02:49:57.786Z,93.44
2018-01-07T02:52:33.089Z,93.11
2018-01-07T02:55:02.107Z,94.28
2018-01-07T02:57:34.458Z,93.84
2018-01-07T03:00:03.508Z,93.70
2018-01-07T03:02:36.860Z,92.95
2018-01-07T03:05:06.218Z,92.85
2018-01-07T03:07:38.951Z,92.38
2018-01-07T03:10:08.019Z,93.45
2018-01-07T03:12:37.079Z,92.41
2018-01-07T03:15:06.134Z,92.27
2018-01-07T03:17:35.164Z,92.65
2018-01-07T03:20:04.207Z,93.20
2018-01-07T03:22:33.276Z,92.97
2018-01-07T03:25:02.358Z,92.59
2018-01-07T03:30:06.585Z,91.68
2018-01-07T03:32:35.618Z,92.38
2018-01-07T03:35:04.662Z,91.76
2018-01-07T03:37:39.192Z,92.18
2018-01-07T03:40:08.247Z,92.07
2018-01-07T03:42:37.286Z,93.03
2018-01-07T03:47:45.422Z,92.26
2018-01-07T03:50:14.490Z,92.69
2018-01-07T03:52:49.267Z,92.25
2018-01-07T03:55:18.310Z,93.28
2018-01-07T04:00:27.210Z,91.37
2018-01-07T04:03:13.134Z,91.66
2018-01-07T04:05:47.797Z,92.38
2018-01-07T04:08:16.813Z,92.05
2018-01-07T04:13:24.003Z,92.52
2018-01-07T04:16:12.782Z,92.52
2018-01-07T04:18:41.832Z,92.98
2018-01-07T04:21:12.785Z,93.96
2018-01-07T04:23:45.967Z,94.94
2018-01-07T04:26:15.915Z,93.47
2018-01-07T04:31:24.035Z,94.50
2018-01-07T04:33:57.011Z,94.37
2018-01-07T04:36:26.098Z,93.08
2018-01-07T04:39:00.385Z,92.81
2018-01-07T04:41:29.429Z,91.99
2018-01-07T04:44:02.366Z,93.57
2018-01-07T04:46:31.414Z,92.39
2018-01-07T04:49:13.534Z,91.50
2018-01-07T04:51:50.085Z,93.21
2018-01-07T04:54:19.122Z,93.36
2018-01-07T04:56:49.078Z,93.47
2018-01-07T04:59:18.192Z,94.17
2018-01-07T05:01:51.186Z,93.32
2018-01-07T05:04:21.127Z,94.58
2018-01-07T05:06:53.900Z,94.10
2018-01-07T05:09:23.850Z,93.49
2018-01-07T05:11:52.909Z,94.02
2018-01-07T05:14:21.949Z,93.23
2018-01-07T05:16:51.045Z,93.37
2018-01-07T05:19:20.066Z,92.24
2018-01-07T05:21:49.131Z,92.01
2018-01-07T05:24:30.645Z,91.89
2018-01-07T05:26:59.709Z,91.78
2018-01-07T05:29:32.759Z,92.73
2018-01-07T05:32:12.519Z,92.25
2018-01-07T05:34:41.574Z,93.48
2018-01-07T05:37:12.584Z,91.95
2018-01-07T05:39:41.657Z,91.40
2018-01-07T05:42:11.673Z,92.68
2018-01-07T05:44:40.721Z,91.97
2018-01-07T05:47:09.834Z,92.42
2018-01-07T05:49:38.874Z,92.34
2018-01-07T05:54:43.134Z,91.23
2018-01-07T05:57:12.338Z,92.46
2018-01-07T05:59:41.394Z,92.14
2018-01-07T06:04:45.695Z,92.56
2018-01-07T06:07:15.666Z,92.70
2018-01-07T06:09:44.710Z,93.23
2018-01-07T06:12:15.348Z,93.39
2018-01-07T06:14:44.473Z,92.52
2018-01-07T06:19:52.932Z,91.83
2018-01-07T06:22:21.982Z,92.59
2018-01-07T06:24:51.034Z,92.40
2018-01-07T06:27:20.133Z,92.08
2018-01-07T06:29:49.146Z,92.58
2018-01-07T06:32:23.370Z,92.94
2018-01-07T06:34:53.314Z,93.32
2018-01-07T06:37:44.759Z,92.35
2018-01-07T06:42:51.998Z,92.50
2018-01-07T06:45:21.053Z,93.57
2018-01-07T06:47:50.129Z,92.33
2018-01-07T06:50:20.083Z,92.75
2018-01-07T06:52:53.342Z,91.70
2018-01-07T06:58:01.585Z,91.68
2018-01-07T07:00:30.705Z,91.38
2018-01-07T07:02:59.688Z,92.45
2018-01-07T07:05:28.723Z,91.85
2018-01-07T07:07:57.766Z,92.24
2018-01-07T07:10:28.769Z,92.24
2018-01-07T07:12:57.825Z,92.73
2018-01-07T07:15:32.297Z,91.92
2018-01-07T07:18:01.327Z,92.41
2018-01-07T07:20:30.370Z,92.25
2018-01-07T07:22:59.412Z,92.97
2018-01-07T07:25:29.367Z,91.96
2018-01-07T07:27:58.402Z,92.38
2018-01-07T07:30:32.353Z,91.86
2018-01-07T07:33:01.406Z,92.33
2018-01-07T07:35:31.422Z,92.04
2018-01-07T07:38:00.480Z,92.12
2018-01-07T07:40:29.530Z,91.38
2018-01-07T07:42:58.569Z,91.75
2018-01-07T07:45:27.618Z,91.72
2018-01-07T07:47:57.562Z,92.14
2018-01-07T07:50:44.172Z,91.75
2018-01-07T07:53:21.544Z,91.98
2018-01-07T07:55:53.535Z,91.49
2018-01-07T07:58:33.419Z,92.50
2018-01-07T08:01:02.475Z,92.21
2018-01-07T08:03:31.517Z,92.17
2018-01-07T08:06:00.572Z,91.03
2018-01-07T08:08:29.605Z,91.07
2018-01-07T08:10:58.642Z,90.82
2018-01-07T08:13:27.686Z,90.02
2018-01-07T08:15:56.726Z,90.66
2018-01-07T08:18:31.108Z,90.14
2018-01-07T08:21:08.033Z,90.84
2018-01-07T08:23:49.969Z,91.58
2018-01-07T08:26:19.025Z,92.56
2018-01-07T08:29:04.272Z,90.80
2018-01-07T08:31:33.289Z,91.18
2018-01-07T08:34:03.275Z,90.22
2018-01-07T08:36:32.333Z,90.40
2018-01-07T08:39:05.726Z,90.24
2018-01-07T08:41:35.740Z,90.69
2018-01-07T08:44:12.214Z,90.27
2018-01-07T08:46:42.217Z,90.94
2018-01-07T08:49:14.890Z,89.99
2018-01-07T08:51:43.950Z,90.51
2018-01-07T08:54:12.996Z,89.70
2018-01-07T08:56:42.153Z,92.02
2018-01-07T08:59:14.362Z,91.95
2018-01-07T09:01:49.432Z,91.49
2018-01-07T09:04:18.453Z,90.89
2018-01-07T09:06:47.510Z,90.10
2018-01-07T09:09:16.538Z,90.51
2018-01-07T09:11:48.782Z,90.49
2018-01-07T09:14:17.836Z,89.84
2018-01-07T09:16:46.862Z,88.90
2018-01-07T09:19:15.928Z,88.65
2018-01-07T09:21:44.942Z,88.52
2018-01-07T09:24:17.215Z,88.54
2018-01-07T09:26:46.238Z,88.51
2018-01-07T09:29:19.002Z,89.37
2018-01-07T09:31:48.957Z,88.69
2018-01-07T09:34:21.302Z,88.33
2018-01-07T09:36:50.383Z,88.40
2018-01-07T09:39:19.393Z,88.63
2018-01-07T09:41:48.450Z,88.67
2018-01-07T09:44:19.429Z,88.39
2018-01-07T09:46:48.477Z,88.46
2018-01-07T09:49:31.524Z,88.48
2018-01-07T09:54:40.670Z,86.76
2018-01-07T09:57:10.613Z,86.34
2018-01-07T09:59:39.667Z,86.31
2018-01-07T10:04:44.389Z,86.52
2018-01-07T10:07:15.351Z,86.80
2018-01-07T10:09:45.305Z,86.72
2018-01-07T10:14:50.646Z,84.56
2018-01-07T10:17:38.710Z,84.73
2018-01-07T10:20:08.754Z,85.32
2018-01-07T10:22:37.794Z,84.90
2018-01-07T10:25:15.527Z,86.60
2018-01-07T10:27:44.589Z,86.28
2018-01-07T10:30:13.624Z,85.87
2018-01-07T10:37:53.178Z,85.57
2018-01-07T10:40:30.315Z,85.57
2018-01-07T10:42:59.364Z,86.01
2018-01-07T10:45:28.423Z,86.48
2018-01-07T10:47:57.458Z,85.77
2018-01-07T10:53:15.763Z,85.57
2018-01-07T10:55:44.803Z,87.74
2018-01-07T10:58:15.804Z,87.74
2018-01-07T11:00:50.327Z,86.53
2018-01-07T11:03:19.390Z,86.42
2018-01-07T11:05:53.842Z,85.58
2018-01-07T11:08:22.890Z,86.28
2018-01-07T11:11:00.433Z,86.30
2018-01-07T11:13:37.181Z,86.13
2018-01-07T11:16:06.254Z,86.55
2018-01-07T11:18:37.222Z,86.01
2018-01-07T11:21:06.275Z,86.67
2018-01-07T11:23:35.345Z,86.92
2018-01-07T11:26:04.378Z,87.50
2018-01-07T11:28:33.438Z,87.29
2018-01-07T11:31:03.432Z,86.91
2018-01-07T11:33:32.469Z,86.90
2018-01-07T11:36:03.410Z,87.00
2018-01-07T11:38:32.450Z,86.80
2018-01-07T11:41:03.444Z,86.44
2018-01-07T11:43:37.064Z,86.54
2018-01-07T11:46:06.093Z,86.46
2018-01-07T11:48:52.671Z,86.41
2018-01-07T11:51:21.718Z,86.63
2018-01-07T11:56:27.437Z,86.47
2018-01-07T11:59:03.891Z,85.94
2018-01-07T12:01:33.936Z,86.07
2018-01-07T12:04:03.011Z,86.71
2018-01-07T12:06:35.374Z,87.02
2018-01-07T12:09:04.414Z,87.53
2018-01-07T12:14:08.638Z,86.15
2018-01-07T12:19:12.965Z,87.11
2018-01-07T12:21:41.978Z,87.07
2018-01-07T12:24:11.028Z,87.11
2018-01-07T12:29:15.306Z,86.76
2018-01-07T12:31:47.653Z,87.35
2018-01-07T12:34:16.702Z,88.23
2018-01-07T12:36:45.775Z,87.57
2018-01-07T12:39:16.837Z,87.74
2018-01-07T12:41:45.869Z,88.27
2018-01-07T12:44:14.921Z,88.14
2018-01-07T12:46:43.958Z,88.05
2018-01-07T12:49:21.282Z,88.19
2018-01-07T12:51:55.103Z,87.53
2018-01-07T12:54:28.864Z,88.42
2018-01-07T12:59:33.070Z,87.48
2018-01-07T13:04:37.803Z,88.73
2018-01-07T13:07:14.383Z,89.09
2018-01-07T13:09:43.423Z,89.35
2018-01-07T13:12:12.494Z,89.37
2018-01-07T13:14:42.626Z,88.34
2018-01-07T13:17:14.847Z,87.94
2018-01-07T13:19:43.898Z,89.05
2018-01-07T13:22:17.356Z,88.26
2018-01-07T13:24:50.146Z,88.64
2018-01-07T13:27:25.038Z,89.19
2018-01-07T13:32:31.381Z,87.80
2018-01-07T13:35:04.126Z,88.00
2018-01-07T13:37:34.483Z,88.39
2018-01-07T13:40:26.515Z,88.04
2018-01-07T13:42:59.663Z,88.79
2018-01-07T13:45:28.747Z,89.28
2018-01-07T13:48:02.882Z,91.42
2018-01-07T13:50:32.430Z,90.40
2018-01-07T13:53:13.153Z,89.90
2018-01-07T13:55:46.701Z,92.11
2018-01-07T13:58:18.340Z,92.13
2018-01-07T14:00:55.620Z,90.91
2018-01-07T14:03:26.569Z,91.35
2018-01-07T14:05:58.639Z,91.73
2018-01-07T14:08:39.398Z,91.47
2018-01-07T14:11:08.438Z,91.18
2018-01-07T14:13:37.473Z,91.46
2018-01-07T14:16:07.284Z,90.80
2018-01-07T14:18:42.335Z,90.84
2018-01-07T14:23:46.659Z,90.16
2018-01-07T14:26:16.605Z,91.18
2018-01-07T14:28:45.650Z,91.38
2018-01-07T14:31:15.198Z,91.19
2018-01-07T14:33:44.285Z,91.02
2018-01-07T14:36:13.423Z,91.33
2018-01-07T14:38:43.111Z,91.20
2018-01-07T14:41:12.292Z,90.56
2018-01-07T14:43:41.334Z,90.17
2018-01-07T14:46:20.102Z,89.73
2018-01-07T14:48:53.494Z,90.17
2018-01-07T14:51:24.652Z,90.51
2018-01-07T14:53:57.656Z,89.96
2018-01-07T14:56:26.773Z,90.06
2018-01-07T14:58:55.863Z,89.99
2018-01-07T15:01:25.126Z,90.20
2018-01-07T15:03:54.173Z,89.37
2018-01-07T15:06:34.140Z,90.07
2018-01-07T15:09:07.604Z,89.85
2018-01-07T15:11:36.712Z,90.11
2018-01-07T15:14:14.303Z,89.89
2018-01-07T15:16:44.287Z,89.67
2018-01-07T15:21:49.026Z,89.91
2018-01-07T15:24:18.874Z,90.58
2018-01-07T15:26:47.886Z,90.49
2018-01-07T15:29:17.038Z,90.02
2018-01-07T15:34:21.468Z,89.44
2018-01-07T15:36:55.969Z,89.66
2018-01-07T15:39:25.124Z,89.49
2018-01-07T15:41:55.182Z,89.42
2018-01-07T15:44:29.453Z,89.32
2018-01-07T15:46:58.589Z,89.79
2018-01-07T15:49:27.716Z,90.01
2018-01-07T15:51:59.619Z,89.91
2018-01-07T15:54:28.663Z,90.22
2018-01-07T15:56:57.713Z,90.36
2018-01-07T15:59:29.212Z,90.11
2018-01-07T16:04:37.445Z,90.17
2018-01-07T16:07:07.416Z,90.54
2018-01-07T16:12:12.806Z,90.09
2018-01-07T16:14:53.251Z,90.11
2018-01-07T16:17:24.344Z,90.92
2018-01-07T16:19:55.284Z,90.69
2018-01-07T16:22:27.323Z,90.46
2018-01-07T16:24:56.356Z,91.02
2018-01-07T16:27:25.404Z,91.37
2018-01-07T16:32:30.655Z,90.71
2018-01-07T16:35:07.477Z,90.63
2018-01-07T16:37:50.250Z,90.39
2018-01-07T16:40:19.658Z,91.42
2018-01-07T16:43:10.874Z,91.49
2018-01-07T16:45:39.971Z,92.17
2018-01-07T16:48:11.046Z,92.48
2018-01-07T16:50:40.673Z,92.06
2018-01-07T16:53:09.712Z,93.58
2018-01-07T16:55:38.750Z,93.17
2018-01-07T16:58:12.383Z,93.25
2018-01-07T17:00:41.510Z,93.01
2018-01-07T17:05:48.067Z,91.80
2018-01-07T17:08:20.354Z,91.34
2018-01-07T17:10:49.833Z,91.70
2018-01-07T17:13:19.401Z,92.16
2018-01-07T17:15:48.938Z,92.34
2018-01-07T17:28:44.648Z,91.46
2018-01-07T17:31:20.842Z,91.73
2018-01-07T17:33:50.392Z,91.89
2018-01-07T17:36:27.730Z,92.06
2018-01-07T17:38:56.773Z,91.41
2018-01-07T17:41:28.790Z,91.58
2018-01-07T17:43:57.900Z,91.95
2018-01-07T17:51:40.249Z,90.88
2018-01-07T17:54:09.306Z,91.67
2018-01-07T17:56:38.372Z,92.03
2018-01-07T17:59:08.302Z,92.45
2018-01-07T18:04:15.676Z,91.04
2018-01-07T18:09:33.822Z,91.10
2018-01-07T18:12:02.875Z,91.57
2018-01-07T18:14:36.267Z,92.32
2018-01-07T18:17:05.522Z,92.27
2018-01-07T18:19:35.487Z,92.74
2018-01-07T18:22:04.925Z,93.07
2018-01-07T18:24:34.865Z,92.87
2018-01-07T18:27:03.932Z,93.66
2018-01-07T18:29:43.564Z,93.47
2018-01-07T18:32:13.078Z,93.19
2018-01-07T18:34:43.461Z,91.85
2018-01-07T18:37:13.526Z,92.06
2018-01-07T18:39:43.605Z,91.75
2018-01-07T18:42:13.810Z,92.36
2018-01-07T18:44:52.723Z,92.50
2018-01-07T18:47:27.133Z,93.32
2018-01-07T18:49:57.166Z,93.61
2018-01-07T18:55:01.948Z,91.78
2018-01-07T19:00:07.484Z,91.62
2018-01-07T19:02:48.479Z,91.89
2018-01-07T19:05:19.270Z,91.78
2018-01-07T19:07:51.809Z,91.85
2018-01-07T19:15:38.656Z,91.49
2018-01-07T19:18:08.384Z,91.60
2018-01-07T19:20:41.152Z,91.79
2018-01-07T19:23:10.252Z,91.37
2018-01-07T19:25:39.384Z,91.44
2018-01-07T19:28:08.577Z,92.00
2018-01-07T19:30:39.148Z,92.26
2018-01-07T19:33:08.690Z,91.63
2018-01-07T19:35:37.971Z,90.69
2018-01-07T19:38:17.187Z,91.08
2018-01-07T19:40:47.634Z,91.00
2018-01-07T19:43:17.702Z,91.06
2018-01-07T19:45:48.120Z,91.26
2018-01-07T19:48:17.194Z,91.32
2018-01-07T19:50:53.717Z,91.06
2018-01-07T19:53:22.758Z,90.93
2018-01-07T19:55:57.528Z,91.40
2018-01-07T19:58:26.806Z,91.01
2018-01-07T20:03:31.264Z,90.06
2018-01-07T20:08:35.746Z,90.42
2018-01-07T20:11:10.363Z,90.76
2018-01-07T20:13:39.640Z,91.04
2018-01-07T20:16:20.100Z,91.16
2018-01-07T20:18:51.525Z,91.30
2018-01-07T20:21:21.070Z,91.37
2018-01-07T20:23:51.594Z,91.15
2018-01-07T20:26:20.861Z,90.90
2018-01-07T20:28:51.991Z,90.45
2018-01-07T20:31:22.089Z,90.76
2018-01-07T20:33:53.318Z,90.84
2018-01-07T20:36:30.214Z,91.03
2018-01-07T20:39:00.521Z,90.96
2018-01-07T20:41:31.868Z,90.59
2018-01-07T20:44:07.872Z,90.50
2018-01-07T20:46:37.038Z,90.36
2018-01-07T20:49:08.468Z,90.07
2018-01-07T20:51:40.057Z,90.50
2018-01-07T20:59:26.668Z,89.54
2018-01-07T21:04:32.411Z,90.49
2018-01-07T21:07:04.260Z,91.02
2018-01-07T21:09:35.484Z,90.79
2018-01-07T21:14:42.169Z,90.87
2018-01-07T21:17:11.485Z,90.95
2018-01-07T21:19:42.825Z,90.84
2018-01-07T21:22:22.738Z,90.97
2018-01-07T21:24:51.792Z,90.72
2018-01-07T21:27:20.818Z,90.91
2018-01-07T21:29:50.894Z,90.74
2018-01-07T21:32:19.959Z,90.23
2018-01-07T21:34:48.998Z,90.98
2018-01-07T21:37:18.943Z,90.82
2018-01-07T21:39:47.974Z,90.67
2018-01-07T21:42:17.227Z,91.04
2018-01-07T21:44:47.494Z,90.49
2018-01-07T21:47:30.552Z,90.24
2018-01-07T21:50:00.983Z,90.82
2018-01-07T21:55:05.812Z,90.85
2018-01-07T22:03:24.045Z,89.51
2018-01-07T22:06:02.115Z,89.96
2018-01-07T22:08:31.191Z,90.09
2018-01-07T22:11:00.388Z,90.54
2018-01-07T22:13:32.986Z,90.50
2018-01-07T22:16:02.241Z,89.72
2018-01-07T22:18:39.334Z,90.02
2018-01-07T22:21:22.796Z,89.52
2018-01-07T22:23:52.945Z,89.78
2018-01-07T22:26:32.760Z,90.19
2018-01-07T22:29:01.804Z,90.10
2018-01-07T22:31:35.250Z,90.18
2018-01-07T22:34:04.458Z,90.47
2018-01-07T22:36:47.627Z,90.43
2018-01-07T22:39:16.802Z,90.25
2018-01-07T22:42:01.230Z,90.48
2018-01-07T22:44:35.586Z,90.48
2018-01-07T22:47:04.636Z,90.40
2018-01-07T22:49:33.667Z,90.25
2018-01-07T22:52:03.674Z,90.77
2018-01-07T22:54:33.710Z,91.03
2018-01-07T22:57:02.748Z,91.03
2018-01-07T22:59:31.816Z,91.22
2018-01-07T23:02:00.843Z,91.24
2018-01-07T23:04:35.071Z,91.45
2018-01-07T23:07:04.102Z,91.11
2018-01-07T23:09:46.528Z,90.64
2018-01-07T23:12:15.546Z,90.77
2018-01-07T23:14:47.663Z,90.67
2018-01-07T23:17:24.469Z,90.68
2018-01-07T23:19:57.298Z,90.78
2018-01-07T23:22:26.343Z,90.63
2018-01-07T23:24:55.405Z,90.78
2018-01-07T23:27:30.041Z,90.62
2018-01-07T23:29:59.095Z,90.97
2018-01-07T23:32:41.142Z,91.20
2018-01-07T23:35:10.211Z,91.81
2018-01-07T23:37:39.253Z,91.75
2018-01-07T23:40:08.896Z,91.38
2018-01-07T23:42:37.907Z,91.59
2018-01-07T23:45:06.952Z,91.68
2018-01-07T23:47:36.067Z,91.41
2018-01-07T23:50:05.086Z,91.04
2018-01-07T23:52:34.120Z,91.08
2018-01-07T23:55:08.171Z,90.62
2018-01-07T23:57:37.310Z,90.88
